LPMT

Details ICAO LPMT
Name MONTIJO
Region Portugal
Timezone Europe/Lisbon (UTC+0.0)
Plans Departing 41
Arriving 13
Stats Elevation 46 ft / 14 m (AMSL)
Location 38.709035° -9.030348°
Runways 2
Magnetic Variation 2.328° W
Sunrise 2017-12-11 07:45:32 UTC / 2017-12-11 07:45:32 Local
Sunset 2017-12-11 17:16:09 UTC / 2017-12-11 17:16:09 Local
Advertisement - Login to hide

Runways

ID Width Length Bearing (true) Bearing (mag) Surface Threshold Offset Overrun Length
01 148 ft / 45 m 7,203 ft / 2,195 m 6.51° 8.84° Asphalt 0 ft / 0 m 0 ft / 0 m
08 148 ft / 45 m 7,998 ft / 2,438 m 72.35° 74.68° Concrete 0 ft / 0 m 1,608 ft / 490 m
19 148 ft / 45 m 7,203 ft / 2,195 m 186.52° 188.85° Asphalt 0 ft / 0 m 0 ft / 0 m
26 148 ft / 45 m 7,998 ft / 2,438 m 252.37° 254.70° Concrete 0 ft / 0 m 919 ft / 280 m

Map

Weather


0- 5 10 15 20 25 30 35+ Temperature / ° C

Clouds and Precipitation
Forecast for 2017-12-11 18:00 UTC. Updated 2 hours ago

Ground ~20,000 ft ~40,000 ft Winds

METAR

LPMT 111700Z 34012KT 9999 FEW030 SCT040 12/05 Q1006

TAF

TAF LPMT 111108Z 1112/1212 31012KT 9999 FEW020 SCT030 TEMPO 1112/1119 33015G25KT 5000 SHRA BKN015 FEW025CB PROB40 TEMPO 1112/1117 32020G35KT 3000 TSRAGS BKN012 SCT022CB BECMG 1115/1118 35010KT

Frequencies

Tower 122.10 MHz TWR
Tower 134.10 MHz TWR
Warning: Do not use this data for real-world aviation or navigation. No guarantee of current accuracy is given.